createdAt,value
2023-08-31T00:00:28.230Z,12.41
2023-08-31T00:01:28.296Z,12.37
2023-08-31T00:02:28.366Z,12.38
2023-08-31T00:03:28.303Z,12.36
2023-08-31T00:04:28.318Z,12.37
2023-08-31T00:05:28.243Z,12.34
2023-08-31T00:06:28.252Z,12.30
2023-08-31T00:07:28.243Z,12.41
2023-08-31T00:08:28.301Z,12.37
2023-08-31T00:09:28.169Z,12.37
2023-08-31T00:10:28.189Z,12.34
2023-08-31T00:11:28.205Z,12.36
2023-08-31T00:12:28.139Z,12.36
2023-08-31T00:13:28.157Z,12.26
2023-08-31T00:14:28.197Z,12.36
2023-08-31T00:15:28.092Z,12.31
2023-08-31T00:16:28.109Z,12.26
2023-08-31T00:17:28.188Z,12.16
2023-08-31T00:18:28.111Z,12.23
2023-08-31T00:19:28.112Z,12.16
2023-08-31T00:20:28.114Z,12.04
2023-08-31T00:21:28.117Z,12.16
2023-08-31T00:22:28.093Z,12.16
2023-08-31T00:23:28.128Z,12.21
2023-08-31T00:24:28.035Z,12.31
2023-08-31T00:25:28.036Z,12.22
2023-08-31T00:26:28.077Z,12.18
2023-08-31T00:27:28.053Z,12.12
2023-08-31T00:28:27.990Z,12.16
2023-08-31T00:29:28.004Z,12.19
2023-08-31T00:30:28.099Z,12.13
2023-08-31T00:31:28.001Z,12.13
2023-08-31T00:32:28.076Z,12.04
2023-08-31T00:33:27.982Z,11.97
2023-08-31T00:34:27.979Z,11.98
2023-08-31T00:35:28.005Z,12.00
2023-08-31T00:36:28.021Z,12.07
2023-08-31T00:37:28.032Z,12.00
2023-08-31T00:38:28.060Z,11.96
2023-08-31T00:39:27.943Z,11.93
2023-08-31T00:40:27.993Z,12.00
2023-08-31T00:41:27.956Z,11.85
2023-08-31T00:42:27.902Z,11.97
2023-08-31T00:43:27.925Z,11.93
2023-08-31T00:44:28.000Z,11.96
2023-08-31T00:45:27.915Z,11.93
2023-08-31T00:46:27.985Z,11.87
2023-08-31T00:47:27.906Z,11.81
2023-08-31T00:48:27.898Z,11.82
2023-08-31T00:49:27.856Z,11.97
2023-08-31T00:50:27.925Z,11.85
2023-08-31T00:51:27.846Z,11.84
2023-08-31T00:52:27.892Z,11.94
2023-08-31T00:53:27.907Z,11.97
2023-08-31T00:54:27.827Z,11.87
2023-08-31T00:55:27.832Z,11.88
2023-08-31T00:56:27.886Z,11.88
2023-08-31T00:57:27.904Z,11.98
2023-08-31T00:58:27.776Z,11.93
2023-08-31T00:59:27.800Z,11.85
2023-08-31T01:00:27.807Z,11.79
2023-08-31T01:01:27.837Z,11.78
2023-08-31T01:02:31.506Z,11.97
2023-08-31T01:03:28.866Z,11.90
2023-08-31T01:04:27.830Z,11.96
2023-08-31T01:05:27.808Z,11.87
2023-08-31T01:06:27.708Z,11.87
2023-08-31T01:07:27.726Z,11.84
2023-08-31T01:08:27.830Z,11.96
2023-08-31T01:09:27.740Z,11.90
2023-08-31T01:10:27.793Z,11.85
2023-08-31T01:11:27.707Z,11.90
2023-08-31T01:12:27.752Z,11.85
2023-08-31T01:13:27.730Z,11.77
2023-08-31T01:14:27.779Z,11.79
2023-08-31T01:15:27.750Z,11.81
2023-08-31T01:16:27.767Z,11.93
2023-08-31T01:17:27.775Z,11.90
2023-08-31T01:18:27.696Z,11.87
2023-08-31T01:19:27.622Z,11.85
2023-08-31T01:20:27.741Z,11.79
2023-08-31T01:21:27.635Z,11.81
2023-08-31T01:22:27.637Z,11.85
2023-08-31T01:23:27.595Z,11.87
2023-08-31T01:24:27.671Z,11.88
2023-08-31T01:25:27.672Z,11.81
2023-08-31T01:26:27.642Z,11.85
2023-08-31T01:27:27.632Z,11.90
2023-08-31T01:28:27.580Z,11.84
2023-08-31T01:29:27.586Z,11.81
2023-08-31T01:30:27.647Z,11.84
2023-08-31T01:31:27.579Z,11.75
2023-08-31T01:32:27.588Z,11.78
2023-08-31T01:33:27.568Z,11.66
2023-08-31T01:34:27.545Z,11.75
2023-08-31T01:35:27.608Z,11.75
2023-08-31T01:36:27.540Z,11.77
2023-08-31T01:37:27.524Z,11.72
2023-08-31T01:38:27.570Z,11.79
2023-08-31T01:39:27.579Z,11.78
2023-08-31T01:40:27.507Z,11.81
2023-08-31T01:41:27.552Z,11.66
2023-08-31T01:42:27.526Z,11.62
2023-08-31T01:43:27.473Z,11.66
2023-08-31T01:44:27.604Z,11.54
2023-08-31T01:45:27.555Z,11.57
2023-08-31T01:46:27.570Z,11.60
2023-08-31T01:47:27.433Z,11.56
2023-08-31T01:48:27.421Z,11.46
2023-08-31T01:49:27.498Z,11.41
2023-08-31T01:50:27.498Z,11.49
2023-08-31T01:51:27.413Z,11.54
2023-08-31T01:52:27.409Z,11.53
2023-08-31T01:53:27.427Z,11.48
2023-08-31T01:54:27.407Z,11.41
2023-08-31T01:55:27.425Z,11.41
2023-08-31T01:56:27.462Z,11.24
2023-08-31T01:57:27.372Z,11.23
2023-08-31T01:58:27.358Z,11.17
2023-08-31T01:59:27.394Z,11.09
2023-08-31T02:00:27.361Z,11.16
2023-08-31T02:01:27.396Z,11.17
2023-08-31T02:02:27.471Z,11.21
2023-08-31T02:03:27.448Z,11.08
2023-08-31T02:04:27.317Z,11.16
2023-08-31T02:05:27.388Z,11.02
2023-08-31T02:06:27.300Z,11.13
2023-08-31T02:07:27.302Z,11.06
2023-08-31T02:08:27.381Z,11.01
2023-08-31T02:09:27.272Z,11.02
2023-08-31T02:10:27.335Z,11.06
2023-08-31T02:11:27.272Z,11.06
2023-08-31T02:12:27.258Z,11.19
2023-08-31T02:13:27.258Z,11.26
2023-08-31T02:14:27.293Z,11.39
2023-08-31T02:15:27.286Z,11.38
2023-08-31T02:16:27.216Z,11.39
2023-08-31T02:17:27.298Z,11.42
2023-08-31T02:18:27.291Z,11.51
2023-08-31T02:19:27.188Z,11.51
2023-08-31T02:20:27.311Z,11.63
2023-08-31T02:21:27.192Z,11.70
2023-08-31T02:22:27.188Z,11.67
2023-08-31T02:23:27.210Z,11.70
2023-08-31T02:24:27.253Z,11.70
2023-08-31T02:25:27.231Z,11.78
2023-08-31T02:26:27.209Z,11.79
2023-08-31T02:27:27.192Z,11.84
2023-08-31T02:28:27.159Z,11.94
2023-08-31T02:29:27.153Z,11.87
2023-08-31T02:30:27.159Z,11.85
2023-08-31T02:31:27.181Z,11.85
2023-08-31T02:32:27.196Z,11.93
2023-08-31T02:33:27.102Z,11.85
2023-08-31T02:34:27.103Z,11.94
2023-08-31T02:35:27.104Z,11.93
2023-08-31T02:36:27.087Z,11.85
2023-08-31T02:37:27.093Z,11.90
2023-08-31T02:38:27.123Z,11.84
2023-08-31T02:39:27.086Z,11.81
2023-08-31T02:40:27.048Z,11.87
2023-08-31T02:41:27.109Z,11.84
2023-08-31T02:42:27.053Z,11.90
2023-08-31T02:43:27.038Z,11.96
2023-08-31T02:44:27.094Z,11.87
2023-08-31T02:45:27.044Z,11.97
2023-08-31T02:46:27.050Z,12.00
2023-08-31T02:47:27.012Z,11.87
2023-08-31T02:48:27.173Z,11.79
2023-08-31T02:49:26.996Z,11.94
2023-08-31T02:50:27.029Z,11.96
2023-08-31T02:51:26.976Z,11.96
2023-08-31T02:52:26.948Z,11.97
2023-08-31T02:53:26.945Z,11.94
2023-08-31T02:54:26.953Z,12.00
2023-08-31T02:55:26.960Z,11.85
2023-08-31T02:56:26.997Z,11.93
2023-08-31T02:57:26.931Z,11.97
2023-08-31T02:58:26.931Z,12.00
2023-08-31T02:59:26.914Z,11.94
2023-08-31T03:00:26.937Z,11.88
2023-08-31T03:01:26.909Z,11.82
2023-08-31T03:02:27.007Z,11.90
2023-08-31T03:03:26.898Z,11.87
2023-08-31T03:04:26.870Z,11.88
2023-08-31T03:05:26.879Z,11.96
2023-08-31T03:06:26.869Z,11.85
2023-08-31T03:07:26.863Z,11.94
2023-08-31T03:08:26.925Z,11.88
2023-08-31T03:09:26.869Z,11.84
2023-08-31T03:10:26.822Z,11.97
2023-08-31T03:11:26.809Z,11.94
2023-08-31T03:12:26.821Z,11.90
2023-08-31T03:13:26.820Z,12.01
2023-08-31T03:14:26.936Z,11.96
2023-08-31T03:15:26.854Z,11.94
2023-08-31T03:16:26.841Z,11.93
2023-08-31T03:17:26.792Z,11.93
2023-08-31T03:18:26.778Z,11.88
2023-08-31T03:19:26.908Z,11.96
2023-08-31T03:20:26.856Z,12.00
2023-08-31T03:21:26.772Z,11.97
2023-08-31T03:22:26.759Z,12.05
2023-08-31T03:23:26.758Z,11.96
2023-08-31T03:24:26.750Z,11.98
2023-08-31T03:25:26.776Z,12.05
2023-08-31T03:26:26.767Z,11.97
2023-08-31T03:27:26.687Z,12.01
2023-08-31T03:28:26.696Z,11.87
2023-08-31T03:29:26.701Z,11.88
2023-08-31T03:30:26.718Z,12.03
2023-08-31T03:31:26.722Z,11.87
2023-08-31T03:32:26.723Z,11.78
2023-08-31T03:33:26.659Z,11.85
2023-08-31T03:34:26.716Z,11.85
2023-08-31T03:35:26.715Z,11.82
2023-08-31T03:36:26.667Z,11.78
2023-08-31T03:37:26.683Z,12.01
2023-08-31T03:38:26.701Z,11.90
2023-08-31T03:39:26.702Z,11.98
2023-08-31T03:40:26.710Z,11.96
2023-08-31T03:41:26.726Z,11.85
2023-08-31T03:42:26.675Z,11.93
2023-08-31T03:43:26.671Z,11.87
2023-08-31T03:44:26.642Z,11.85
2023-08-31T03:45:26.600Z,11.94
2023-08-31T03:46:26.617Z,11.90
2023-08-31T03:47:26.648Z,11.90
2023-08-31T03:48:26.584Z,11.94
2023-08-31T03:49:26.545Z,11.94
2023-08-31T03:50:26.640Z,11.79
2023-08-31T03:51:26.614Z,11.88
2023-08-31T03:52:26.556Z,12.04
2023-08-31T03:53:26.514Z,11.85
2023-08-31T03:54:26.601Z,11.96
2023-08-31T03:55:26.578Z,11.88
2023-08-31T03:56:26.653Z,11.93
2023-08-31T03:57:26.572Z,11.94
2023-08-31T03:58:26.484Z,11.84
2023-08-31T03:59:26.578Z,11.94
2023-08-31T04:00:26.512Z,11.88
2023-08-31T04:01:26.593Z,11.97
2023-08-31T04:02:26.580Z,12.03
2023-08-31T04:03:26.588Z,11.82
2023-08-31T04:04:26.519Z,11.94
2023-08-31T04:05:26.430Z,11.88
2023-08-31T04:06:26.458Z,11.78
2023-08-31T04:07:26.458Z,11.82
2023-08-31T04:08:26.497Z,11.90
2023-08-31T04:09:26.544Z,11.97
2023-08-31T04:10:26.392Z,11.85
2023-08-31T04:11:26.464Z,11.96
2023-08-31T04:12:26.415Z,11.85
2023-08-31T04:13:26.454Z,11.85
2023-08-31T04:14:26.522Z,11.88
2023-08-31T04:15:26.470Z,11.94
2023-08-31T04:16:26.406Z,11.93
2023-08-31T04:17:26.415Z,11.90
2023-08-31T04:18:26.419Z,11.93
2023-08-31T04:19:26.393Z,11.88
2023-08-31T04:20:26.416Z,11.85
2023-08-31T04:21:26.369Z,11.93
2023-08-31T04:22:26.365Z,11.96
2023-08-31T04:23:26.355Z,11.87
2023-08-31T04:24:26.330Z,11.97
2023-08-31T04:25:26.340Z,11.90
2023-08-31T04:26:26.373Z,11.94
2023-08-31T04:27:26.401Z,11.88
2023-08-31T04:28:26.236Z,11.85
2023-08-31T04:29:26.290Z,11.85
2023-08-31T04:30:26.232Z,11.82
2023-08-31T04:31:26.293Z,11.78
2023-08-31T04:32:26.325Z,11.75
2023-08-31T04:33:26.267Z,11.70
2023-08-31T04:34:26.232Z,11.70
2023-08-31T04:35:26.262Z,11.69
2023-08-31T04:36:26.236Z,11.66
2023-08-31T04:37:26.257Z,11.63
2023-08-31T04:38:26.333Z,11.69
2023-08-31T04:39:26.304Z,11.56
2023-08-31T04:40:26.252Z,11.49
2023-08-31T04:41:26.173Z,11.53
2023-08-31T04:42:26.171Z,11.39
2023-08-31T04:43:26.131Z,11.57
2023-08-31T04:44:26.289Z,11.44
2023-08-31T04:45:26.140Z,11.42
2023-08-31T04:46:26.155Z,11.44
2023-08-31T04:47:26.176Z,11.41
2023-08-31T04:48:26.110Z,11.44
2023-08-31T04:49:26.117Z,11.44
2023-08-31T04:50:26.128Z,11.39
2023-08-31T04:51:26.082Z,11.41
2023-08-31T04:52:26.146Z,11.44
2023-08-31T04:53:26.154Z,11.39
2023-08-31T04:54:26.104Z,11.39
2023-08-31T04:55:26.067Z,11.38
2023-08-31T04:56:26.120Z,11.51
2023-08-31T04:57:26.106Z,11.42
2023-08-31T04:58:26.071Z,11.35
2023-08-31T04:59:26.104Z,11.42
2023-08-31T05:00:26.022Z,11.41
2023-08-31T05:01:26.078Z,11.38
2023-08-31T05:02:26.116Z,11.48
2023-08-31T05:03:26.010Z,11.48
2023-08-31T05:04:26.032Z,11.44
2023-08-31T05:05:26.041Z,11.51
2023-08-31T05:06:25.971Z,11.63
2023-08-31T05:07:25.975Z,11.64
2023-08-31T05:08:26.032Z,11.69
2023-08-31T05:09:26.032Z,11.70
2023-08-31T05:10:26.044Z,11.74
2023-08-31T05:11:25.968Z,11.70
2023-08-31T05:12:25.955Z,11.69
2023-08-31T05:13:25.979Z,11.77
2023-08-31T05:14:26.034Z,11.75
2023-08-31T05:15:25.933Z,11.77
2023-08-31T05:16:26.085Z,11.81
2023-08-31T05:17:25.991Z,11.60
2023-08-31T05:18:25.904Z,11.69
2023-08-31T05:19:27.774Z,11.74
2023-08-31T05:20:26.010Z,11.66
2023-08-31T05:21:25.847Z,11.69
2023-08-31T05:22:25.928Z,11.78
2023-08-31T05:23:25.934Z,11.62
2023-08-31T05:24:25.951Z,11.62
2023-08-31T05:25:28.458Z,11.64
2023-08-31T05:26:25.984Z,11.74
2023-08-31T05:27:25.906Z,11.79
2023-08-31T05:28:25.839Z,11.82
2023-08-31T05:29:25.844Z,11.78
2023-08-31T05:30:25.848Z,11.79
2023-08-31T05:31:25.866Z,11.81
2023-08-31T05:32:26.009Z,11.94
2023-08-31T05:33:25.842Z,11.93
2023-08-31T05:34:25.777Z,11.90
2023-08-31T05:35:25.873Z,11.97
2023-08-31T05:36:25.776Z,12.08
2023-08-31T05:37:25.856Z,12.12
2023-08-31T05:38:25.800Z,12.23
2023-08-31T05:39:25.801Z,12.11
2023-08-31T05:40:25.833Z,12.13
2023-08-31T05:41:25.760Z,12.11
2023-08-31T05:42:25.860Z,12.00
2023-08-31T05:43:25.736Z,12.01
2023-08-31T05:44:25.792Z,12.11
2023-08-31T05:45:25.735Z,12.21
2023-08-31T05:46:25.792Z,12.26
2023-08-31T05:47:25.735Z,12.34
2023-08-31T05:48:25.722Z,12.40
2023-08-31T05:49:25.714Z,12.34
2023-08-31T05:50:25.730Z,12.26
2023-08-31T05:51:25.716Z,12.41
2023-08-31T05:52:25.726Z,12.43
2023-08-31T05:53:25.710Z,12.46
2023-08-31T05:54:25.686Z,12.52
2023-08-31T05:55:25.722Z,12.40
2023-08-31T05:56:25.752Z,12.37
2023-08-31T05:57:25.627Z,12.36
2023-08-31T05:58:25.698Z,12.34
2023-08-31T05:59:25.600Z,12.34
2023-08-31T06:00:25.677Z,12.36
2023-08-31T06:01:25.740Z,12.34
2023-08-31T06:02:25.786Z,12.38
2023-08-31T06:03:25.557Z,12.33
2023-08-31T06:04:25.624Z,12.33
2023-08-31T06:05:25.611Z,12.44
2023-08-31T06:06:25.576Z,12.41
2023-08-31T06:07:25.622Z,12.58
2023-08-31T06:08:25.614Z,12.61
2023-08-31T06:09:25.779Z,12.55
2023-08-31T06:10:25.534Z,12.62
2023-08-31T06:12:26.447Z,12.61
2023-08-31T06:13:25.584Z,12.74
2023-08-31T06:14:25.654Z,12.87
2023-08-31T06:15:25.564Z,12.84
2023-08-31T06:16:25.618Z,13.01
2023-08-31T06:17:25.580Z,12.99
2023-08-31T06:18:25.480Z,13.16
2023-08-31T06:19:25.561Z,13.22
2023-08-31T06:20:25.547Z,13.27
2023-08-31T06:21:25.532Z,13.17
2023-08-31T06:22:25.516Z,13.12
2023-08-31T06:23:25.498Z,13.03
2023-08-31T06:24:25.526Z,12.98
2023-08-31T06:25:25.901Z,12.96
2023-08-31T06:26:25.979Z,13.04
2023-08-31T06:27:25.412Z,13.03
2023-08-31T06:28:25.474Z,13.01
2023-08-31T06:29:25.445Z,13.07
2023-08-31T06:30:25.422Z,13.09
2023-08-31T06:31:25.597Z,13.13
2023-08-31T06:32:25.580Z,13.13
2023-08-31T06:33:25.420Z,13.13
2023-08-31T06:34:25.375Z,13.07
2023-08-31T06:35:25.399Z,13.16
2023-08-31T06:36:25.338Z,13.09
2023-08-31T06:37:25.383Z,13.31
2023-08-31T06:38:25.420Z,13.50
2023-08-31T06:39:25.395Z,13.32
2023-08-31T06:40:25.372Z,13.41
2023-08-31T06:41:25.386Z,13.57
2023-08-31T06:42:26.602Z,13.73
2023-08-31T06:43:25.354Z,13.69
2023-08-31T06:44:25.329Z,13.71
2023-08-31T06:45:25.281Z,13.80
2023-08-31T06:46:25.646Z,13.80
2023-08-31T06:47:25.257Z,13.84
2023-08-31T06:48:25.318Z,13.91
2023-08-31T06:49:25.268Z,13.98
2023-08-31T06:50:25.380Z,14.08
2023-08-31T06:51:25.455Z,14.01
2023-08-31T06:53:25.308Z,13.98
2023-08-31T06:54:25.274Z,14.08
2023-08-31T06:55:25.230Z,14.05
2023-08-31T06:56:26.135Z,13.98
2023-08-31T06:57:25.182Z,13.94
2023-08-31T06:58:25.221Z,14.05
2023-08-31T06:59:25.265Z,14.05
2023-08-31T07:00:25.163Z,14.06
2023-08-31T07:01:25.262Z,14.02
2023-08-31T07:02:26.394Z,14.02
2023-08-31T07:03:27.371Z,14.11
2023-08-31T07:04:25.174Z,14.16
2023-08-31T07:05:25.136Z,14.11
2023-08-31T07:06:25.126Z,14.05
2023-08-31T07:07:25.174Z,14.20
2023-08-31T07:08:25.161Z,14.30
2023-08-31T07:09:25.111Z,14.53
2023-08-31T07:10:25.135Z,14.57
2023-08-31T07:11:25.164Z,14.66
2023-08-31T07:12:25.138Z,14.66
2023-08-31T07:13:25.107Z,14.69
2023-08-31T07:14:25.172Z,14.86
2023-08-31T07:15:25.102Z,14.86
2023-08-31T07:16:25.198Z,14.80
2023-08-31T07:17:25.131Z,14.85
2023-08-31T07:18:25.079Z,14.86
2023-08-31T07:19:25.040Z,14.91
2023-08-31T07:20:25.229Z,14.91
2023-08-31T07:21:25.047Z,15.07
2023-08-31T07:22:25.097Z,15.00
2023-08-31T07:23:25.060Z,15.00
2023-08-31T07:24:25.069Z,15.07
2023-08-31T07:25:25.090Z,14.95
2023-08-31T07:26:26.087Z,14.97
2023-08-31T07:27:25.020Z,14.98
2023-08-31T07:28:25.006Z,15.05
2023-08-31T07:29:24.996Z,15.09
2023-08-31T07:30:25.030Z,15.19
2023-08-31T07:31:24.984Z,15.34
2023-08-31T07:32:26.051Z,15.37
2023-08-31T07:33:30.941Z,15.22
2023-08-31T07:34:25.913Z,15.22
2023-08-31T07:35:24.955Z,15.27
2023-08-31T07:36:24.964Z,15.30
2023-08-31T07:37:24.909Z,15.30
2023-08-31T07:38:24.982Z,15.28
2023-08-31T07:39:24.931Z,15.30
2023-08-31T07:40:24.891Z,15.37
2023-08-31T07:41:24.949Z,15.46
2023-08-31T07:42:24.881Z,15.49
2023-08-31T07:43:24.939Z,15.46
2023-08-31T07:44:25.967Z,15.49
2023-08-31T07:45:24.878Z,15.60
2023-08-31T07:46:24.946Z,15.60
2023-08-31T07:47:24.859Z,15.49
2023-08-31T07:48:24.902Z,15.44
2023-08-31T07:49:24.797Z,15.67
2023-08-31T07:50:24.897Z,15.74
2023-08-31T07:51:24.799Z,15.76
2023-08-31T07:52:24.852Z,15.78
2023-08-31T07:53:24.866Z,15.88
2023-08-31T07:54:24.806Z,15.93
2023-08-31T07:55:24.840Z,15.88
2023-08-31T07:56:24.875Z,15.85
2023-08-31T07:57:24.776Z,15.85
2023-08-31T07:58:24.807Z,15.84
2023-08-31T07:59:24.811Z,15.86
2023-08-31T08:00:24.839Z,15.88
2023-08-31T08:01:24.831Z,15.92
2023-08-31T08:02:24.990Z,16.07
2023-08-31T08:03:24.923Z,16.11
2023-08-31T08:04:24.742Z,16.37
2023-08-31T08:05:24.706Z,16.52
2023-08-31T08:06:24.738Z,16.44
2023-08-31T08:07:24.765Z,16.27
2023-08-31T08:08:25.762Z,16.23
2023-08-31T08:09:24.754Z,16.14
2023-08-31T08:10:24.664Z,16.10
2023-08-31T08:11:24.705Z,16.04
2023-08-31T08:12:24.671Z,16.08
2023-08-31T08:13:24.710Z,16.25
2023-08-31T08:14:25.786Z,16.18
2023-08-31T08:15:24.720Z,15.98
2023-08-31T08:16:24.721Z,16.17
2023-08-31T08:17:24.623Z,16.25
2023-08-31T08:18:24.662Z,16.33
2023-08-31T08:19:24.671Z,16.45
2023-08-31T08:20:24.670Z,16.60
2023-08-31T08:21:24.589Z,16.55
2023-08-31T08:22:24.675Z,16.40
2023-08-31T08:23:24.669Z,16.25
2023-08-31T08:24:24.646Z,16.32
2023-08-31T08:25:24.573Z,16.69
2023-08-31T08:26:24.700Z,16.82
2023-08-31T08:27:24.559Z,17.00
2023-08-31T08:28:24.606Z,16.85
2023-08-31T08:29:24.555Z,16.81
2023-08-31T08:30:24.574Z,16.91
2023-08-31T08:31:25.777Z,16.85
2023-08-31T08:32:24.728Z,17.20
2023-08-31T08:33:24.528Z,17.28
2023-08-31T08:34:24.519Z,17.71
2023-08-31T08:35:24.573Z,17.74
2023-08-31T08:36:24.490Z,17.53
2023-08-31T08:37:24.489Z,17.51
2023-08-31T08:38:24.572Z,17.21
2023-08-31T08:39:24.510Z,17.06
2023-08-31T08:40:24.474Z,16.92
2023-08-31T08:41:24.518Z,17.24
2023-08-31T08:42:24.503Z,17.49
2023-08-31T08:43:24.499Z,17.49
2023-08-31T08:44:24.573Z,17.45
2023-08-31T08:45:24.467Z,17.45
2023-08-31T08:46:24.486Z,17.65
2023-08-31T08:47:24.503Z,17.43
2023-08-31T08:48:24.377Z,17.32
2023-08-31T08:49:24.404Z,17.39
2023-08-31T08:50:24.531Z,17.55
2023-08-31T08:51:24.381Z,17.57
2023-08-31T08:52:24.439Z,17.83
2023-08-31T08:53:24.395Z,17.86
2023-08-31T08:54:24.352Z,18.13
2023-08-31T08:55:24.366Z,18.04
2023-08-31T08:56:24.439Z,17.81
2023-08-31T08:57:24.413Z,17.45
2023-08-31T08:58:24.397Z,17.30
2023-08-31T08:59:24.387Z,17.15
2023-08-31T09:00:24.323Z,16.88
2023-08-31T09:01:24.492Z,16.84
2023-08-31T09:02:24.400Z,17.12
2023-08-31T09:03:24.305Z,17.36
2023-08-31T09:04:24.313Z,17.33
2023-08-31T09:05:24.430Z,17.58
2023-08-31T09:06:24.335Z,17.80
2023-08-31T09:07:24.270Z,17.96
2023-08-31T09:08:24.381Z,18.14
2023-08-31T09:09:24.308Z,18.35
2023-08-31T09:10:24.314Z,18.02
2023-08-31T09:11:24.349Z,17.92
2023-08-31T09:12:24.229Z,18.16
2023-08-31T09:13:24.212Z,18.28
2023-08-31T09:14:24.268Z,18.19
2023-08-31T09:15:24.289Z,18.50
2023-08-31T09:16:24.311Z,18.49
2023-08-31T09:17:24.323Z,18.50
2023-08-31T09:18:24.224Z,18.53
2023-08-31T09:19:24.227Z,18.44
2023-08-31T09:20:24.237Z,18.26
2023-08-31T09:21:24.170Z,18.49
2023-08-31T09:22:24.146Z,18.78
2023-08-31T09:23:24.182Z,19.09
2023-08-31T09:24:24.149Z,19.24
2023-08-31T09:25:24.176Z,19.42
2023-08-31T09:26:24.159Z,19.49
2023-08-31T09:27:24.251Z,19.61
2023-08-31T09:28:24.141Z,19.68
2023-08-31T09:29:24.161Z,19.87
2023-08-31T09:30:24.143Z,19.58
2023-08-31T09:31:24.179Z,19.83
2023-08-31T09:32:24.366Z,19.90
2023-08-31T09:33:24.121Z,19.90
2023-08-31T09:34:24.077Z,19.28
2023-08-31T09:35:25.492Z,19.32
2023-08-31T09:36:24.032Z,19.40
2023-08-31T09:37:24.054Z,19.80
2023-08-31T09:38:24.131Z,19.15
2023-08-31T09:39:24.078Z,18.69
2023-08-31T09:40:24.089Z,18.75
2023-08-31T09:41:24.073Z,19.42
2023-08-31T09:42:24.013Z,19.47
2023-08-31T09:43:24.017Z,19.70
2023-08-31T09:44:24.095Z,19.67
2023-08-31T09:45:32.334Z,19.38
2023-08-31T09:46:25.013Z,19.65
2023-08-31T09:47:23.990Z,20.04
2023-08-31T09:48:24.065Z,20.38
2023-08-31T09:49:23.995Z,20.30
2023-08-31T09:50:24.062Z,20.04
2023-08-31T09:51:23.938Z,20.02
2023-08-31T09:52:23.964Z,20.17
2023-08-31T09:53:23.947Z,19.70
2023-08-31T09:54:23.970Z,19.72
2023-08-31T09:55:23.908Z,19.49
2023-08-31T09:56:23.951Z,19.35
2023-08-31T09:57:36.169Z,19.53
2023-08-31T09:58:25.009Z,19.58
2023-08-31T09:59:23.960Z,19.61
2023-08-31T10:00:23.849Z,19.85
2023-08-31T10:01:29.826Z,20.13
2023-08-31T10:02:25.054Z,20.25
2023-08-31T10:03:23.966Z,20.07
2023-08-31T10:04:23.906Z,20.25
2023-08-31T10:05:25.669Z,20.27
2023-08-31T10:06:23.912Z,19.82
2023-08-31T10:07:23.837Z,19.35
2023-08-31T10:08:23.917Z,19.70
2023-08-31T10:09:23.875Z,19.80
2023-08-31T10:10:23.817Z,20.04
2023-08-31T10:11:23.803Z,20.37
2023-08-31T10:12:23.911Z,20.68
2023-08-31T10:13:23.840Z,21.26
2023-08-31T10:14:24.843Z,21.52
2023-08-31T10:15:23.880Z,21.45
2023-08-31T10:16:23.819Z,21.12
2023-08-31T10:17:23.820Z,21.08
2023-08-31T10:18:23.808Z,21.28
2023-08-31T10:19:23.790Z,21.15
2023-08-31T10:20:24.800Z,21.64
2023-08-31T10:21:23.856Z,22.05
2023-08-31T10:22:23.741Z,22.24
2023-08-31T10:23:23.769Z,22.14
2023-08-31T10:24:23.695Z,22.48
2023-08-31T10:25:23.722Z,22.33
2023-08-31T10:26:23.752Z,21.89
2023-08-31T10:27:23.682Z,21.37
2023-08-31T10:28:23.740Z,21.38
2023-08-31T10:29:23.697Z,21.01
2023-08-31T10:30:23.682Z,20.50
2023-08-31T10:31:23.915Z,21.00
2023-08-31T10:32:23.849Z,21.67
2023-08-31T10:33:23.667Z,21.81
2023-08-31T10:34:23.625Z,22.08
2023-08-31T10:35:23.663Z,22.24
2023-08-31T10:36:23.657Z,22.52
2023-08-31T10:37:23.681Z,22.88
2023-08-31T10:38:23.724Z,22.82
2023-08-31T10:39:23.585Z,22.61
2023-08-31T10:40:23.560Z,22.96
2023-08-31T10:41:23.645Z,22.81
2023-08-31T10:42:23.606Z,22.94
2023-08-31T10:43:27.136Z,23.32
2023-08-31T10:44:24.666Z,23.18
2023-08-31T10:45:23.541Z,23.06
2023-08-31T10:46:23.536Z,22.57
2023-08-31T10:47:23.618Z,22.14
2023-08-31T10:48:23.517Z,22.04
2023-08-31T10:49:23.566Z,21.91
2023-08-31T10:50:24.626Z,21.93
2023-08-31T10:51:23.552Z,21.16
2023-08-31T10:52:40.435Z,21.12
2023-08-31T10:53:24.520Z,20.72
2023-08-31T10:54:23.534Z,20.72
2023-08-31T10:55:23.468Z,20.37
2023-08-31T10:56:23.601Z,21.03
2023-08-31T10:57:23.520Z,21.55
2023-08-31T10:58:23.453Z,21.86
2023-08-31T10:59:23.483Z,22.24
2023-08-31T11:00:23.497Z,22.88
2023-08-31T11:01:23.494Z,22.97
2023-08-31T11:02:23.486Z,23.03
2023-08-31T11:03:23.590Z,23.47
2023-08-31T11:04:23.621Z,23.86
2023-08-31T11:05:24.868Z,24.15
2023-08-31T11:06:23.457Z,23.26
2023-08-31T11:07:23.433Z,23.15
2023-08-31T11:08:23.422Z,23.99
2023-08-31T11:09:23.383Z,23.56
2023-08-31T11:10:23.387Z,22.81
2023-08-31T11:11:23.409Z,22.31
2023-08-31T11:12:23.354Z,21.89
2023-08-31T11:13:23.399Z,22.46
2023-08-31T11:14:23.457Z,23.09
2023-08-31T11:15:23.440Z,23.34
2023-08-31T11:16:23.395Z,23.00
2023-08-31T11:17:23.297Z,22.27
2023-08-31T11:18:23.372Z,21.82
2023-08-31T11:19:23.369Z,22.59
2023-08-31T11:20:23.379Z,23.14
2023-08-31T11:21:23.289Z,23.11
2023-08-31T11:22:23.262Z,22.46
2023-08-31T11:23:23.356Z,22.85
2023-08-31T11:24:23.318Z,23.54
2023-08-31T11:25:23.237Z,23.00
2023-08-31T11:26:23.384Z,22.41
2023-08-31T11:27:23.265Z,21.43
2023-08-31T11:28:23.297Z,20.54
2023-08-31T11:29:23.268Z,20.76
2023-08-31T11:30:23.241Z,20.63
2023-08-31T11:31:23.337Z,20.34
2023-08-31T11:32:23.286Z,20.31
2023-08-31T11:33:23.253Z,20.22
2023-08-31T11:34:23.249Z,20.15
2023-08-31T11:35:23.248Z,19.97
2023-08-31T11:36:23.250Z,19.70
2023-08-31T11:37:23.168Z,19.46
2023-08-31T11:38:23.276Z,19.61
2023-08-31T11:39:23.161Z,20.05
2023-08-31T11:40:23.253Z,21.16
2023-08-31T11:41:23.200Z,21.83
2023-08-31T11:42:23.178Z,21.53
2023-08-31T11:43:23.114Z,22.27
2023-08-31T11:44:23.680Z,22.24
2023-08-31T11:45:23.207Z,22.75
2023-08-31T11:46:23.171Z,22.08
2023-08-31T11:47:23.114Z,21.67
2023-08-31T11:48:23.154Z,22.20
2023-08-31T11:49:23.153Z,23.00
2023-08-31T11:50:23.182Z,23.56
2023-08-31T11:51:23.075Z,23.53
2023-08-31T11:52:23.130Z,22.24
2023-08-31T11:53:23.129Z,21.56
2023-08-31T11:54:23.116Z,21.85
2023-08-31T11:55:23.165Z,22.23
2023-08-31T11:56:23.094Z,22.84
2023-08-31T11:57:23.044Z,23.06
2023-08-31T11:58:23.085Z,22.44
2023-08-31T11:59:23.011Z,21.42
2023-08-31T12:00:23.036Z,20.91
2023-08-31T12:01:23.054Z,20.56
2023-08-31T12:02:23.096Z,19.98
2023-08-31T12:03:27.464Z,20.56
2023-08-31T12:04:24.109Z,21.83
2023-08-31T12:05:22.982Z,21.74
2023-08-31T12:06:23.021Z,22.24
2023-08-31T12:07:23.052Z,23.04
2023-08-31T12:08:23.066Z,23.50
2023-08-31T12:09:22.972Z,23.81
2023-08-31T12:10:23.009Z,23.64
2023-08-31T12:11:22.940Z,23.84
2023-08-31T12:12:22.893Z,24.21
2023-08-31T12:13:22.981Z,23.99
2023-08-31T12:14:23.362Z,23.54
2023-08-31T12:15:22.968Z,23.32
2023-08-31T12:16:23.016Z,22.59
2023-08-31T12:17:22.913Z,21.89
2023-08-31T12:18:22.873Z,22.49
2023-08-31T12:19:22.883Z,23.15
2023-08-31T12:20:22.991Z,23.18
2023-08-31T12:21:22.937Z,22.52
2023-08-31T12:22:22.866Z,22.09
2023-08-31T12:23:22.952Z,21.56
2023-08-31T12:24:22.829Z,21.51
2023-08-31T12:25:22.907Z,21.43
2023-08-31T12:26:22.868Z,21.77
2023-08-31T12:27:22.844Z,22.30
2023-08-31T12:28:22.894Z,22.44
2023-08-31T12:29:22.849Z,22.66
2023-08-31T12:30:22.888Z,23.26
2023-08-31T12:31:22.895Z,23.71
2023-08-31T12:32:22.886Z,23.78
2023-08-31T12:33:22.928Z,23.57
2023-08-31T12:34:22.777Z,23.77
2023-08-31T12:35:22.796Z,23.14
2023-08-31T12:36:22.798Z,23.09
2023-08-31T12:37:22.841Z,22.74
2023-08-31T12:38:23.851Z,23.11
2023-08-31T12:39:22.800Z,23.62
2023-08-31T12:40:22.812Z,23.49
2023-08-31T12:41:24.830Z,23.35
2023-08-31T12:42:24.171Z,23.64
2023-08-31T12:43:22.736Z,22.59
2023-08-31T12:44:22.782Z,21.52
2023-08-31T12:45:22.799Z,21.83
2023-08-31T12:46:22.757Z,22.11
2023-08-31T12:47:22.717Z,22.27
2023-08-31T12:48:22.744Z,21.98
2023-08-31T12:49:22.792Z,22.29
2023-08-31T12:50:22.792Z,22.20
2023-08-31T12:51:22.648Z,21.89
2023-08-31T12:52:24.828Z,21.68
2023-08-31T12:53:22.654Z,21.28
2023-08-31T12:54:22.718Z,20.93